Grave, Netherlands
Current Conditions -  °F | °C
As of 10:16 AM on Monday 22 Dec 2014 (Local Time) from EHVK Reporting Station
Haze Haze  
Wind Chill: 40°   Ceiling: 1000
Heat Index: 48°   Visibility: 1.8mi
Dew Point: 46°   Wind: 26mph
Humidity: 93%   Direction: 220°SW
Pressure: 30.03"   Gusts: NA
Location:  51.76°N, 5.74°E
Report Text: EHVK 220916Z AUTO 22023KT 3000 R24R/P3000 BR FEW009 OVC010 09/08 Q1017 YLO 23021G31KT 9999 BKN008 TEMPO 3000 DZ BR
Loading
Personal Weather Stations






























Interactive Weather Map New forecast layout! Learn more

10-Day Weather Forecast

Advertisements
Track Severe Weather on mobile